createdAt,value
2024-02-29T00:02:43.714Z,41.50
2024-02-29T00:07:21.234Z,42.83
2024-02-29T00:11:55.808Z,47.57
2024-02-29T00:16:26.433Z,50.20
2024-02-29T00:20:56.811Z,53.67
2024-02-29T00:25:30.623Z,54.43
2024-02-29T00:30:01.003Z,53.37
2024-02-29T00:34:35.885Z,52.20
2024-02-29T00:39:11.499Z,51.97
2024-02-29T00:43:44.868Z,56.30
2024-02-29T00:48:48.204Z,50.20
2024-02-29T00:57:57.142Z,52.77
2024-02-29T01:02:46.225Z,48.83
2024-02-29T01:07:21.014Z,47.40
2024-02-29T01:11:56.357Z,52.23
2024-02-29T01:16:19.635Z,52.70
2024-02-29T01:20:54.191Z,51.87
2024-02-29T01:25:31.985Z,51.50
2024-02-29T01:30:16.414Z,48.00
2024-02-29T01:34:47.186Z,54.67
2024-02-29T01:39:40.815Z,49.17
2024-02-29T01:44:33.595Z,56.13
2024-02-29T01:49:02.069Z,57.63
2024-02-29T01:53:31.191Z,58.03
2024-02-29T01:58:00.111Z,54.67
2024-02-29T02:02:44.871Z,58.33
2024-02-29T02:07:27.409Z,57.50
2024-02-29T02:12:00.024Z,59.13
2024-02-29T02:16:22.542Z,60.80
2024-02-29T02:20:53.929Z,63.37
2024-02-29T02:25:23.297Z,60.17
2024-02-29T02:29:51.972Z,54.00
2024-02-29T02:34:19.428Z,62.83
2024-02-29T02:38:52.005Z,60.83
2024-02-29T02:43:20.780Z,62.50
2024-02-29T02:47:43.580Z,64.30
2024-02-29T02:52:16.415Z,61.70
2024-02-29T02:56:39.735Z,62.87
2024-02-29T03:01:09.757Z,60.83
2024-02-29T03:05:41.567Z,66.87
2024-02-29T03:10:10.849Z,69.67
2024-02-29T03:14:38.926Z,60.73
2024-02-29T03:19:08.513Z,62.03
2024-02-29T03:23:39.066Z,57.37
2024-02-29T03:28:39.288Z,62.13
2024-02-29T03:33:31.508Z,62.30
2024-02-29T03:38:00.181Z,64.13
2024-02-29T03:47:07.720Z,64.40
2024-02-29T03:51:34.865Z,64.00
2024-02-29T03:56:09.393Z,62.73
2024-02-29T04:00:38.046Z,64.20
2024-02-29T04:05:11.886Z,63.07
2024-02-29T04:09:57.927Z,67.13
2024-02-29T04:14:27.219Z,61.70
2024-02-29T04:18:53.826Z,60.20
2024-02-29T04:23:23.307Z,62.13
2024-02-29T04:28:01.570Z,69.10
2024-02-29T04:32:32.445Z,56.50
2024-02-29T04:37:01.579Z,57.30
2024-02-29T04:41:37.000Z,64.63
2024-02-29T04:46:08.094Z,57.77
2024-02-29T04:50:37.773Z,55.77
2024-02-29T04:55:06.954Z,56.37
2024-02-29T04:59:37.271Z,59.53
2024-02-29T05:04:08.316Z,61.30
2024-02-29T05:08:40.699Z,55.63
2024-02-29T05:13:15.910Z,52.33
2024-02-29T05:17:38.844Z,50.27
2024-02-29T05:22:08.290Z,50.93
2024-02-29T05:26:37.483Z,52.50
2024-02-29T05:31:16.265Z,46.40
2024-02-29T05:35:52.597Z,47.73
2024-02-29T05:40:20.402Z,53.40
2024-02-29T05:54:24.953Z,48.67
2024-02-29T05:58:53.999Z,47.93
2024-02-29T06:03:30.752Z,51.90
2024-02-29T06:08:05.921Z,51.03
2024-02-29T06:12:36.379Z,49.33
2024-02-29T06:17:03.631Z,48.83
2024-02-29T06:21:28.348Z,50.83
2024-02-29T06:25:52.204Z,47.93
2024-02-29T06:30:28.408Z,45.40
2024-02-29T06:34:57.064Z,45.63
2024-02-29T06:39:23.015Z,44.43
2024-02-29T06:43:48.727Z,41.73
2024-02-29T06:48:14.648Z,46.03
2024-02-29T06:52:40.915Z,41.63
2024-02-29T06:57:07.023Z,40.73
2024-02-29T07:01:34.568Z,39.87
2024-02-29T07:06:09.035Z,40.63
2024-02-29T07:10:40.348Z,36.30
2024-02-29T07:15:07.260Z,35.40
2024-02-29T07:20:28.647Z,40.07
2024-02-29T07:24:36.351Z,35.70
2024-02-29T07:29:20.023Z,36.63
2024-02-29T07:33:47.594Z,36.13
2024-02-29T07:38:12.071Z,34.07
2024-02-29T07:42:34.719Z,31.20
2024-02-29T07:47:03.733Z,30.57
2024-02-29T07:51:28.147Z,34.33
2024-02-29T07:55:55.326Z,34.10
2024-02-29T08:00:22.082Z,33.33
2024-02-29T08:04:50.700Z,32.63
2024-02-29T08:13:59.758Z,39.27
2024-02-29T08:18:22.877Z,28.73
2024-02-29T08:22:49.029Z,30.93
2024-02-29T08:27:15.069Z,26.97
2024-02-29T08:31:42.020Z,28.57
2024-02-29T08:36:12.370Z,26.47
2024-02-29T08:40:38.314Z,28.03
2024-02-29T08:45:15.108Z,23.87
2024-02-29T08:49:40.399Z,23.20
2024-02-29T08:54:05.314Z,25.60
2024-02-29T08:58:30.962Z,24.30
2024-02-29T09:03:01.284Z,23.90
2024-02-29T09:07:27.635Z,21.70
2024-02-29T09:11:53.559Z,23.83
2024-02-29T09:16:21.498Z,24.57
2024-02-29T09:20:46.819Z,22.23
2024-02-29T09:25:12.283Z,20.20
2024-02-29T09:29:37.670Z,21.67
2024-02-29T09:34:00.231Z,20.20
2024-02-29T09:38:25.197Z,20.73
2024-02-29T09:42:49.713Z,20.17
2024-02-29T09:47:27.954Z,18.17
2024-02-29T09:51:53.118Z,17.40
2024-02-29T09:56:16.314Z,18.23
2024-02-29T10:00:43.814Z,17.60
2024-02-29T10:05:12.372Z,18.23
2024-02-29T10:09:41.744Z,19.10
2024-02-29T10:14:04.957Z,16.87
2024-02-29T10:18:28.608Z,17.00
2024-02-29T10:22:57.585Z,16.17
2024-02-29T10:27:24.802Z,15.07
2024-02-29T10:31:54.200Z,15.23
2024-02-29T10:36:23.688Z,13.83
2024-02-29T10:40:52.310Z,13.23
2024-02-29T10:45:18.435Z,12.63
2024-02-29T10:49:48.726Z,12.77
2024-02-29T10:54:14.088Z,13.67
2024-02-29T10:58:45.830Z,13.37
2024-02-29T11:03:11.237Z,12.63
2024-02-29T11:07:42.574Z,14.40
2024-02-29T11:12:11.327Z,11.13
2024-02-29T11:16:39.071Z,14.27
2024-02-29T11:21:05.029Z,15.77
2024-02-29T11:25:32.698Z,12.73
2024-02-29T11:30:04.860Z,13.73
2024-02-29T11:34:28.747Z,15.37
2024-02-29T11:39:04.746Z,12.57
2024-02-29T11:43:29.775Z,13.23
2024-02-29T11:47:54.960Z,11.37
2024-02-29T11:52:19.165Z,13.80
2024-02-29T11:56:41.777Z,12.17
2024-02-29T12:01:07.103Z,12.30
2024-02-29T12:05:36.717Z,11.77
2024-02-29T12:10:15.853Z,10.10
2024-02-29T12:14:40.886Z,10.77
2024-02-29T12:19:04.272Z,12.60
2024-02-29T12:23:29.881Z,9.63
2024-02-29T12:27:55.861Z,12.70
2024-02-29T12:32:19.687Z,12.47
2024-02-29T12:36:49.676Z,12.43
2024-02-29T12:41:14.672Z,13.23
2024-02-29T12:45:42.059Z,11.40
2024-02-29T12:50:05.452Z,10.57
2024-02-29T12:54:27.901Z,11.03
2024-02-29T12:58:51.620Z,11.80
2024-02-29T13:03:18.525Z,10.57
2024-02-29T13:07:44.795Z,13.03
2024-02-29T13:12:10.615Z,12.10
2024-02-29T13:16:34.059Z,11.00
2024-02-29T13:20:58.149Z,11.37
2024-02-29T13:25:24.372Z,11.20
2024-02-29T13:29:48.704Z,10.70
2024-02-29T13:34:13.047Z,13.03
2024-02-29T13:38:39.885Z,12.33
2024-02-29T13:43:03.454Z,15.20
2024-02-29T13:47:29.868Z,12.00
2024-02-29T13:52:00.230Z,11.87
2024-02-29T13:56:26.709Z,12.37
2024-02-29T14:00:49.914Z,12.80
2024-02-29T14:05:13.369Z,11.23
2024-02-29T14:09:37.651Z,13.20
2024-02-29T14:14:02.167Z,13.63
2024-02-29T14:18:25.751Z,13.27
2024-02-29T14:22:51.114Z,13.63
2024-02-29T14:27:28.926Z,14.60
2024-02-29T14:31:55.299Z,14.50
2024-02-29T14:36:22.287Z,12.60
2024-02-29T14:40:47.595Z,14.37
2024-02-29T14:45:26.012Z,17.23
2024-02-29T14:49:53.591Z,15.50
2024-02-29T14:54:17.834Z,17.43
2024-02-29T14:58:42.002Z,15.50
2024-02-29T15:03:07.704Z,13.00
2024-02-29T15:07:35.129Z,15.33
2024-02-29T15:12:05.330Z,14.13
2024-02-29T15:16:32.098Z,18.80
2024-02-29T15:20:54.836Z,14.77
2024-02-29T15:25:17.922Z,12.57
2024-02-29T15:29:57.109Z,13.23
2024-02-29T15:34:29.447Z,13.80
2024-02-29T15:38:54.384Z,14.00
2024-02-29T15:43:20.821Z,13.67
2024-02-29T15:47:48.273Z,13.70
2024-02-29T15:52:13.244Z,15.37
2024-02-29T15:56:38.304Z,14.17
2024-02-29T16:01:01.449Z,14.87
2024-02-29T16:05:26.219Z,18.03
2024-02-29T16:09:50.376Z,17.10
2024-02-29T16:14:14.005Z,17.10
2024-02-29T16:18:39.195Z,17.77
2024-02-29T16:23:02.935Z,15.13
2024-02-29T16:27:27.097Z,15.90
2024-02-29T16:31:49.798Z,17.60
2024-02-29T16:36:14.297Z,15.40
2024-02-29T16:40:37.931Z,18.60
2024-02-29T16:45:01.493Z,13.83
2024-02-29T16:49:26.556Z,13.00
2024-02-29T16:53:52.732Z,12.83
2024-02-29T16:58:19.005Z,14.77
2024-02-29T17:02:45.689Z,14.13
2024-02-29T17:07:13.055Z,11.50
2024-02-29T17:11:37.975Z,13.03
2024-02-29T17:16:02.202Z,11.33
2024-02-29T17:20:28.516Z,11.83
2024-02-29T17:24:54.511Z,13.80
2024-02-29T17:29:17.466Z,11.53
2024-02-29T17:33:42.698Z,13.63
2024-02-29T17:38:09.243Z,14.03
2024-02-29T17:42:33.399Z,14.15
2024-02-29T17:47:04.478Z,14.17
2024-02-29T17:51:30.175Z,15.30
2024-02-29T17:55:55.291Z,13.10
2024-02-29T18:00:18.718Z,15.67
2024-02-29T18:04:46.725Z,15.63
2024-02-29T18:09:13.767Z,14.77
2024-02-29T18:13:40.985Z,21.83
2024-02-29T18:18:05.626Z,16.63
2024-02-29T18:22:32.240Z,18.70
2024-02-29T18:26:54.895Z,19.30
2024-02-29T18:31:19.348Z,18.23
2024-02-29T18:35:49.361Z,19.13
2024-02-29T18:40:20.404Z,18.93
2024-02-29T18:44:43.848Z,20.37
2024-02-29T18:49:08.914Z,20.20
2024-02-29T18:53:35.544Z,21.20
2024-02-29T18:58:08.497Z,22.40
2024-02-29T19:02:33.630Z,20.27
2024-02-29T19:07:00.379Z,22.10
2024-02-29T19:11:26.181Z,22.17
2024-02-29T19:15:51.713Z,23.87
2024-02-29T19:20:15.806Z,25.77
2024-02-29T19:25:10.862Z,24.17
2024-02-29T19:29:35.391Z,25.37
2024-02-29T19:34:20.271Z,24.47
2024-02-29T19:38:48.991Z,24.17
2024-02-29T19:43:15.663Z,25.17
2024-02-29T19:47:42.675Z,24.73
2024-02-29T19:52:13.234Z,22.83
2024-02-29T19:56:44.049Z,23.40
2024-02-29T20:01:08.871Z,24.93
2024-02-29T20:05:34.389Z,25.70
2024-02-29T20:10:00.417Z,23.60
2024-02-29T20:14:27.808Z,25.27
2024-02-29T20:19:07.569Z,30.57
2024-02-29T20:23:36.096Z,28.57
2024-02-29T20:28:04.238Z,31.17
2024-02-29T20:32:34.255Z,27.33
2024-02-29T20:37:00.401Z,24.93
2024-02-29T20:41:25.826Z,30.33
2024-02-29T20:45:58.217Z,29.67
2024-02-29T20:50:25.057Z,29.63
2024-02-29T20:54:55.738Z,30.07
2024-02-29T20:59:23.636Z,27.87
2024-02-29T21:03:51.423Z,28.53
2024-02-29T21:08:16.736Z,27.47
2024-02-29T21:12:41.355Z,25.70
2024-02-29T21:17:10.422Z,26.17
2024-02-29T21:21:37.838Z,27.70
2024-02-29T21:26:02.648Z,29.03
2024-02-29T21:30:27.957Z,28.30
2024-02-29T21:34:55.105Z,28.00
2024-02-29T21:39:21.830Z,28.23
2024-02-29T21:43:52.696Z,27.17
2024-02-29T21:48:22.242Z,29.13
2024-02-29T21:52:51.040Z,29.93
2024-02-29T21:57:16.446Z,31.27
2024-02-29T22:01:44.100Z,27.03
2024-02-29T22:06:12.981Z,32.70
2024-02-29T22:10:37.674Z,31.63
2024-02-29T22:15:02.195Z,29.80
2024-02-29T22:19:27.680Z,31.13
2024-02-29T22:23:51.542Z,31.67
2024-02-29T22:28:15.067Z,31.77
2024-02-29T22:32:42.524Z,31.23
2024-02-29T22:41:53.113Z,38.17
2024-02-29T22:46:23.727Z,33.83
2024-02-29T22:50:47.220Z,33.63
2024-02-29T22:55:11.254Z,32.53
2024-02-29T22:59:35.053Z,34.07
2024-02-29T23:03:59.196Z,34.43
2024-02-29T23:08:23.695Z,36.67
2024-02-29T23:12:53.714Z,38.17
2024-02-29T23:17:22.773Z,33.80
2024-02-29T23:21:51.828Z,30.73
2024-02-29T23:26:15.850Z,35.53
2024-02-29T23:30:42.666Z,31.97
2024-02-29T23:35:07.673Z,35.23
2024-02-29T23:39:35.318Z,36.93
2024-02-29T23:44:02.903Z,33.93
2024-02-29T23:48:27.010Z,34.87
2024-02-29T23:52:55.435Z,36.87
2024-02-29T23:57:19.405Z,36.70
